sensor_id;sensor_type;location;lat;lon;timestamp;temperature;humidity
5828;DHT22;42583;50.240;8.444;2024-03-08T00:04:44;1.80;99.70
5828;DHT22;42583;50.240;8.444;2024-03-08T00:19:46;1.70;99.90
5828;DHT22;42583;50.240;8.444;2024-03-08T00:34:48;1.70;99.90
5828;DHT22;42583;50.240;8.444;2024-03-08T00:49:52;1.60;99.90
5828;DHT22;42583;50.240;8.444;2024-03-08T01:04:53;1.40;99.90
5828;DHT22;42583;50.240;8.444;2024-03-08T01:19:54;1.30;99.90
5828;DHT22;42583;50.240;8.444;2024-03-08T01:34:54;1.20;99.90
5828;DHT22;42583;50.240;8.444;2024-03-08T01:49:55;1.20;99.90
5828;DHT22;42583;50.240;8.444;2024-03-08T02:04:57;1.10;99.90
5828;DHT22;42583;50.240;8.444;2024-03-08T02:19:57;0.90;99.90
5828;DHT22;42583;50.240;8.444;2024-03-08T02:34:59;0.80;99.90
5828;DHT22;42583;50.240;8.444;2024-03-08T02:50:00;0.70;99.90
5828;DHT22;42583;50.240;8.444;2024-03-08T03:05:01;0.60;99.90
5828;DHT22;42583;50.240;8.444;2024-03-08T03:20:07;0.50;99.90
5828;DHT22;42583;50.240;8.444;2024-03-08T03:35:14;0.40;99.90
5828;DHT22;42583;50.240;8.444;2024-03-08T03:50:21;0.30;99.90
5828;DHT22;42583;50.240;8.444;2024-03-08T04:05:22;0.30;99.90
5828;DHT22;42583;50.240;8.444;2024-03-08T04:20:23;0.10;99.90
5828;DHT22;42583;50.240;8.444;2024-03-08T04:35:23;0.00;99.90
5828;DHT22;42583;50.240;8.444;2024-03-08T04:50:24;0.00;99.90
5828;DHT22;42583;50.240;8.444;2024-03-08T05:05:25;0.00;99.90
5828;DHT22;42583;50.240;8.444;2024-03-08T05:20:28;0.10;99.90
5828;DHT22;42583;50.240;8.444;2024-03-08T05:35:28;0.00;99.90
5828;DHT22;42583;50.240;8.444;2024-03-08T05:50:29;-0.10;99.90
5828;DHT22;42583;50.240;8.444;2024-03-08T06:05:29;-0.10;99.90
5828;DHT22;42583;50.240;8.444;2024-03-08T06:20:30;-0.10;99.90
5828;DHT22;42583;50.240;8.444;2024-03-08T06:35:31;-0.10;99.90
5828;DHT22;42583;50.240;8.444;2024-03-08T06:50:38;-0.10;99.90
5828;DHT22;42583;50.240;8.444;2024-03-08T07:05:38;0.00;99.90
5828;DHT22;42583;50.240;8.444;2024-03-08T07:20:42;0.20;99.90
5828;DHT22;42583;50.240;8.444;2024-03-08T07:35:44;0.30;99.90
5828;DHT22;42583;50.240;8.444;2024-03-08T07:50:48;0.40;99.90
5828;DHT22;42583;50.240;8.444;2024-03-08T08:05:50;0.70;99.90
5828;DHT22;42583;50.240;8.444;2024-03-08T08:20:51;1.00;99.90
5828;DHT22;42583;50.240;8.444;2024-03-08T08:35:52;1.20;99.90
5828;DHT22;42583;50.240;8.444;2024-03-08T08:50:54;1.70;99.90
5828;DHT22;42583;50.240;8.444;2024-03-08T09:05:56;1.80;99.90
5828;DHT22;42583;50.240;8.444;2024-03-08T09:21:00;2.20;99.90
5828;DHT22;42583;50.240;8.444;2024-03-08T09:36:00;3.20;99.90
5828;DHT22;42583;50.240;8.444;2024-03-08T09:51:02;4.30;99.90
5828;DHT22;42583;50.240;8.444;2024-03-08T10:06:03;5.70;99.30
5828;DHT22;42583;50.240;8.444;2024-03-08T10:21:08;7.10;95.50
5828;DHT22;42583;50.240;8.444;2024-03-08T10:36:14;8.30;88.10
5828;DHT22;42583;50.240;8.444;2024-03-08T10:51:15;9.30;81.50
5828;DHT22;42583;50.240;8.444;2024-03-08T11:06:18;10.20;72.40
5828;DHT22;42583;50.240;8.444;2024-03-08T11:21:23;10.70;67.20
5828;DHT22;42583;50.240;8.444;2024-03-08T11:36:26;12.50;65.00
5828;DHT22;42583;50.240;8.444;2024-03-08T11:51:27;14.10;57.10
5828;DHT22;42583;50.240;8.444;2024-03-08T12:06:37;15.40;49.70
5828;DHT22;42583;50.240;8.444;2024-03-08T12:21:42;16.30;46.30
5828;DHT22;42583;50.240;8.444;2024-03-08T12:36:50;17.10;43.30
5828;DHT22;42583;50.240;8.444;2024-03-08T12:51:55;18.60;41.10
5828;DHT22;42583;50.240;8.444;2024-03-08T13:06:56;18.70;37.50
5828;DHT22;42583;50.240;8.444;2024-03-08T13:21:56;19.70;36.70
5828;DHT22;42583;50.240;8.444;2024-03-08T13:36:57;21.60;36.20
5828;DHT22;42583;50.240;8.444;2024-03-08T13:52:00;22.10;34.80
5828;DHT22;42583;50.240;8.444;2024-03-08T14:07:01;23.00;31.60
5828;DHT22;42583;50.240;8.444;2024-03-08T14:22:05;21.70;30.80
5828;DHT22;42583;50.240;8.444;2024-03-08T14:37:05;22.50;32.00
5828;DHT22;42583;50.240;8.444;2024-03-08T14:52:11;22.30;30.00
5828;DHT22;42583;50.240;8.444;2024-03-08T15:07:30;22.20;28.90
5828;DHT22;42583;50.240;8.444;2024-03-08T15:22:31;21.60;29.90
5828;DHT22;42583;50.240;8.444;2024-03-08T15:37:31;20.50;29.10
5828;DHT22;42583;50.240;8.444;2024-03-08T15:52:34;19.70;29.90
5828;DHT22;42583;50.240;8.444;2024-03-08T16:07:35;19.40;29.90
5828;DHT22;42583;50.240;8.444;2024-03-08T16:22:35;18.50;29.90
5828;DHT22;42583;50.240;8.444;2024-03-08T16:37:37;13.60;33.10
5828;DHT22;42583;50.240;8.444;2024-03-08T16:52:38;11.30;35.40
5828;DHT22;42583;50.240;8.444;2024-03-08T17:07:39;10.00;36.80
5828;DHT22;42583;50.240;8.444;2024-03-08T17:22:41;9.00;39.00
5828;DHT22;42583;50.240;8.444;2024-03-08T17:37:42;8.30;41.00
5828;DHT22;42583;50.240;8.444;2024-03-08T17:52:45;7.70;42.80
5828;DHT22;42583;50.240;8.444;2024-03-08T18:07:46;7.30;43.20
5828;DHT22;42583;50.240;8.444;2024-03-08T18:22:50;6.90;45.80
5828;DHT22;42583;50.240;8.444;2024-03-08T18:37:52;6.60;47.20
5828;DHT22;42583;50.240;8.444;2024-03-08T18:52:53;6.50;47.80
5828;DHT22;42583;50.240;8.444;2024-03-08T19:07:55;6.30;49.00
5828;DHT22;42583;50.240;8.444;2024-03-08T19:22:57;6.10;49.80
5828;DHT22;42583;50.240;8.444;2024-03-08T19:37:58;6.00;51.10
5828;DHT22;42583;50.240;8.444;2024-03-08T19:52:59;5.80;53.10
5828;DHT22;42583;50.240;8.444;2024-03-08T20:08:04;5.70;54.60
5828;DHT22;42583;50.240;8.444;2024-03-08T20:23:08;5.50;55.90
5828;DHT22;42583;50.240;8.444;2024-03-08T20:38:09;5.40;57.60
5828;DHT22;42583;50.240;8.444;2024-03-08T20:53:11;5.30;59.30
5828;DHT22;42583;50.240;8.444;2024-03-08T21:08:25;5.10;61.30
5828;DHT22;42583;50.240;8.444;2024-03-08T21:23:29;5.00;63.60
5828;DHT22;42583;50.240;8.444;2024-03-08T21:38:30;4.90;66.50
5828;DHT22;42583;50.240;8.444;2024-03-08T21:53:31;4.80;67.40
5828;DHT22;42583;50.240;8.444;2024-03-08T22:08:37;4.70;69.30
5828;DHT22;42583;50.240;8.444;2024-03-08T22:23:38;4.60;72.50
5828;DHT22;42583;50.240;8.444;2024-03-08T22:38:39;4.50;74.40
5828;DHT22;42583;50.240;8.444;2024-03-08T22:53:40;4.50;75.90
5828;DHT22;42583;50.240;8.444;2024-03-08T23:08:42;4.30;78.00
5828;DHT22;42583;50.240;8.444;2024-03-08T23:23:45;4.20;80.40
5828;DHT22;42583;50.240;8.444;2024-03-08T23:38:46;4.00;81.80
5828;DHT22;42583;50.240;8.444;2024-03-08T23:53:49;3.80;84.10
